Terminal Aerodrome Forecast
Issued by NWS Pocatello, ID

Home | Current Version | Previous Version | Text Only | Print | Product List | Glossary On
Versions: 1 2 3 4 5 6 7 8 9 10 11 12 13 14 15 16 17 18 19 20 21 22 23 24 25 26 27 28 29 30 31 32
456
FTUS45 KPIH 050816 AAE
TAFPIH
TAF AMD
KPIH 050816Z 0508/0606 24030G40KT P6SM VCSH SCT020 BKN040 OVC070
     FM051000 24015G25KT P6SM SCT050 BKN090
     FM051400 25010KT P6SM BKN120
     FM060200 VRB06KT P6SM SCT150=

USA.gov is the U.S. government's official web portal to all federal, state and local government web resources and services.